Hlavní strana
METAR-TAF:

METAR-TAF

Letiště :

Vilankulo, Mosambik

zeměpisná šířka: 22-00S, zeměpisná délka: 035-19E, výška: 20 m

Aktuální stav počasí

Zpráva byla vytvořena před 1 hodinou a 1 minutami, v 04:00 UTC
Jihojihovýchodní vítr 5 kt
Teplota 26°C
Vlhkost vzduchu 89%
Tlak 1013 hPa
Viditelnost 10 km a více
Polojasno ve výšce 2000 ft
Oblačno až skoro zataženo ve výšce 8000 ft

METAR: FQVL 160400Z 16005KT 9999 SCT020 BKN080 26/24 Q1013

Čas: 07:01 (05:01 UTC)

Předpověď počasí

Zpráva byla vytvořena před 7 hodinami a 1 minutami, v 22:00 UTC
Předpověď platná od 16 v 00 UTC do 16 v 24 UTC
Východoseverovýchodní vítr 25 kt
Viditelnost 10 km a více
Skoro jasno ve výšce 2000 ft
Změna
od 16 v 06 UTC do 16 v 08 UTC

TAF: FQVL 152200Z 1600/1624 06025KT 9999 FEW020 TX38/1613Z TN23/1603Z BECMG 1606/1608 21025 CHECK TEXT NEW ENDING ADDED LFLFYFYX

Stav a předpovědi počasí z více než 4 000 letišť (zprávy METAR a TAF).

Červené a žluté tečky na mapě představují dostupné meteorologické stanice.

Když kurzor umístíte na tečku, zobrazí se název stanice.

Pak kliknutím zobrazíte stav a předpověď počasí.

Chcete-li změnit mapu, kliknutím na zelené tlačítko se znaménkem +mapu přiblížíte, kliknutím na zelené tlačítko se znaménkem – mapu oddálíte a kliknutím na zelené šipky přejdete na sousední mapy.


METAR-TAF: